sensor_id;sensor_type;location;lat;lon;timestamp;P1;durP1;ratioP1;P2;durP2;ratioP2
38853;SDS011;24606;51.992;4.198;2022-12-17T00:02:57;5.45;;;3.60;;
38853;SDS011;24606;51.992;4.198;2022-12-17T00:08:16;2.90;;;2.25;;
38853;SDS011;24606;51.992;4.198;2022-12-17T00:13:37;5.05;;;2.85;;
38853;SDS011;24606;51.992;4.198;2022-12-17T00:18:56;4.70;;;2.47;;
38853;SDS011;24606;51.992;4.198;2022-12-17T00:24:16;3.78;;;2.35;;
38853;SDS011;24606;51.992;4.198;2022-12-17T00:29:37;3.25;;;2.35;;
38853;SDS011;24606;51.992;4.198;2022-12-17T00:34:56;4.35;;;2.53;;
38853;SDS011;24606;51.992;4.198;2022-12-17T00:40:15;3.17;;;2.10;;
38853;SDS011;24606;51.992;4.198;2022-12-17T00:45:36;4.22;;;2.28;;
38853;SDS011;24606;51.992;4.198;2022-12-17T00:50:56;4.18;;;2.33;;
38853;SDS011;24606;51.992;4.198;2022-12-17T00:56:15;4.45;;;2.38;;
38853;SDS011;24606;51.992;4.198;2022-12-17T01:01:36;4.57;;;2.40;;
38853;SDS011;24606;51.992;4.198;2022-12-17T01:06:56;4.30;;;2.60;;
38853;SDS011;24606;51.992;4.198;2022-12-17T01:12:15;2.78;;;2.50;;
38853;SDS011;24606;51.992;4.198;2022-12-17T01:17:36;3.25;;;2.40;;
38853;SDS011;24606;51.992;4.198;2022-12-17T01:22:55;3.10;;;2.35;;
38853;SDS011;24606;51.992;4.198;2022-12-17T01:28:19;3.28;;;2.13;;
38853;SDS011;24606;51.992;4.198;2022-12-17T01:33:41;3.88;;;2.10;;
38853;SDS011;24606;51.992;4.198;2022-12-17T01:39:01;3.47;;;2.20;;
38853;SDS011;24606;51.992;4.198;2022-12-17T01:44:42;3.35;;;2.22;;
38853;SDS011;24606;51.992;4.198;2022-12-17T01:50:09;5.20;;;2.63;;
38853;SDS011;24606;51.992;4.198;2022-12-17T01:55:29;3.15;;;2.30;;
38853;SDS011;24606;51.992;4.198;2022-12-17T02:00:48;4.18;;;2.25;;
38853;SDS011;24606;51.992;4.198;2022-12-17T02:06:10;3.47;;;2.42;;
38853;SDS011;24606;51.992;4.198;2022-12-17T02:11:38;3.13;;;2.03;;
38853;SDS011;24606;51.992;4.198;2022-12-17T02:17:05;3.42;;;2.33;;
38853;SDS011;24606;51.992;4.198;2022-12-17T02:22:33;3.03;;;2.00;;
38853;SDS011;24606;51.992;4.198;2022-12-17T02:28:02;2.75;;;1.75;;
38853;SDS011;24606;51.992;4.198;2022-12-17T02:33:21;2.22;;;1.80;;
38853;SDS011;24606;51.992;4.198;2022-12-17T02:38:42;2.97;;;2.28;;
38853;SDS011;24606;51.992;4.198;2022-12-17T02:44:03;2.95;;;2.13;;
38853;SDS011;24606;51.992;4.198;2022-12-17T02:49:23;2.97;;;2.23;;
38853;SDS011;24606;51.992;4.198;2022-12-17T02:54:42;3.08;;;1.95;;
38853;SDS011;24606;51.992;4.198;2022-12-17T03:00:04;2.72;;;2.03;;
38853;SDS011;24606;51.992;4.198;2022-12-17T03:05:24;3.67;;;2.23;;
38853;SDS011;24606;51.992;4.198;2022-12-17T03:10:44;2.80;;;1.88;;
38853;SDS011;24606;51.992;4.198;2022-12-17T03:16:07;4.30;;;2.30;;
38853;SDS011;24606;51.992;4.198;2022-12-17T03:21:28;2.88;;;2.13;;
38853;SDS011;24606;51.992;4.198;2022-12-17T03:26:47;5.03;;;2.17;;
38853;SDS011;24606;51.992;4.198;2022-12-17T03:32:08;3.13;;;2.40;;
38853;SDS011;24606;51.992;4.198;2022-12-17T03:37:27;3.60;;;1.83;;
38853;SDS011;24606;51.992;4.198;2022-12-17T03:42:47;3.60;;;1.75;;
38853;SDS011;24606;51.992;4.198;2022-12-17T03:48:09;3.50;;;2.08;;
38853;SDS011;24606;51.992;4.198;2022-12-17T03:53:30;2.17;;;1.65;;
38853;SDS011;24606;51.992;4.198;2022-12-17T03:58:49;3.05;;;1.90;;
38853;SDS011;24606;51.992;4.198;2022-12-17T04:04:10;2.97;;;2.20;;
38853;SDS011;24606;51.992;4.198;2022-12-17T04:09:29;5.03;;;2.50;;
38853;SDS011;24606;51.992;4.198;2022-12-17T04:14:49;3.25;;;2.42;;
38853;SDS011;24606;51.992;4.198;2022-12-17T04:20:10;3.47;;;1.98;;
38853;SDS011;24606;51.992;4.198;2022-12-17T04:25:29;3.00;;;1.65;;
38853;SDS011;24606;51.992;4.198;2022-12-17T04:30:48;4.35;;;1.98;;
38853;SDS011;24606;51.992;4.198;2022-12-17T04:36:09;6.50;;;2.53;;
38853;SDS011;24606;51.992;4.198;2022-12-17T04:41:28;5.13;;;3.17;;
38853;SDS011;24606;51.992;4.198;2022-12-17T04:46:44;3.97;;;2.17;;
38853;SDS011;24606;51.992;4.198;2022-12-17T04:52:05;2.78;;;1.88;;
38853;SDS011;24606;51.992;4.198;2022-12-17T04:57:24;3.75;;;2.35;;
38853;SDS011;24606;51.992;4.198;2022-12-17T05:02:44;3.00;;;2.20;;
38853;SDS011;24606;51.992;4.198;2022-12-17T05:08:04;2.75;;;1.95;;
38853;SDS011;24606;51.992;4.198;2022-12-17T05:13:24;3.20;;;2.28;;
38853;SDS011;24606;51.992;4.198;2022-12-17T05:18:42;3.97;;;2.53;;
38853;SDS011;24606;51.992;4.198;2022-12-17T05:24:04;2.95;;;2.03;;
38853;SDS011;24606;51.992;4.198;2022-12-17T05:29:24;3.72;;;1.77;;
38853;SDS011;24606;51.992;4.198;2022-12-17T05:34:43;4.78;;;2.47;;
38853;SDS011;24606;51.992;4.198;2022-12-17T05:40:04;4.30;;;2.28;;
38853;SDS011;24606;51.992;4.198;2022-12-17T05:45:25;3.40;;;1.90;;
38853;SDS011;24606;51.992;4.198;2022-12-17T05:50:47;2.50;;;2.20;;
38853;SDS011;24606;51.992;4.198;2022-12-17T05:56:09;3.85;;;2.17;;
38853;SDS011;24606;51.992;4.198;2022-12-17T06:01:28;2.80;;;1.73;;
38853;SDS011;24606;51.992;4.198;2022-12-17T06:06:48;4.20;;;2.30;;
38853;SDS011;24606;51.992;4.198;2022-12-17T06:12:08;2.25;;;1.83;;
38853;SDS011;24606;51.992;4.198;2022-12-17T06:17:28;3.97;;;2.13;;
38853;SDS011;24606;51.992;4.198;2022-12-17T06:22:57;2.83;;;1.90;;
38853;SDS011;24606;51.992;4.198;2022-12-17T06:28:18;3.28;;;2.30;;
38853;SDS011;24606;51.992;4.198;2022-12-17T06:33:37;4.07;;;2.03;;
38853;SDS011;24606;51.992;4.198;2022-12-17T06:38:57;3.20;;;1.85;;
38853;SDS011;24606;51.992;4.198;2022-12-17T06:44:17;5.50;;;2.20;;
38853;SDS011;24606;51.992;4.198;2022-12-17T06:49:37;2.45;;;1.70;;
38853;SDS011;24606;51.992;4.198;2022-12-17T06:54:53;3.70;;;2.50;;
38853;SDS011;24606;51.992;4.198;2022-12-17T07:00:14;4.90;;;2.45;;
38853;SDS011;24606;51.992;4.198;2022-12-17T07:15:27;2.30;;;1.80;;
38853;SDS011;24606;51.992;4.198;2022-12-17T07:20:47;3.70;;;2.15;;
38853;SDS011;24606;51.992;4.198;2022-12-17T07:26:06;4.15;;;1.90;;
38853;SDS011;24606;51.992;4.198;2022-12-17T07:31:27;3.17;;;2.25;;
38853;SDS011;24606;51.992;4.198;2022-12-17T07:36:46;2.65;;;2.00;;
38853;SDS011;24606;51.992;4.198;2022-12-17T07:42:06;4.43;;;2.13;;
38853;SDS011;24606;51.992;4.198;2022-12-17T07:47:27;2.53;;;2.20;;
38853;SDS011;24606;51.992;4.198;2022-12-17T07:52:46;4.05;;;2.42;;
38853;SDS011;24606;51.992;4.198;2022-12-17T07:58:07;4.88;;;2.50;;
38853;SDS011;24606;51.992;4.198;2022-12-17T08:03:29;4.50;;;2.22;;
38853;SDS011;24606;51.992;4.198;2022-12-17T08:08:49;4.68;;;3.42;;
38853;SDS011;24606;51.992;4.198;2022-12-17T08:14:04;7.35;;;3.55;;
38853;SDS011;24606;51.992;4.198;2022-12-17T08:19:25;3.72;;;2.60;;
38853;SDS011;24606;51.992;4.198;2022-12-17T08:24:45;11.60;;;5.90;;
38853;SDS011;24606;51.992;4.198;2022-12-17T08:30:05;7.80;;;3.60;;
38853;SDS011;24606;51.992;4.198;2022-12-17T08:35:32;10.20;;;5.43;;
38853;SDS011;24606;51.992;4.198;2022-12-17T08:40:52;19.88;;;10.57;;
38853;SDS011;24606;51.992;4.198;2022-12-17T08:46:12;10.00;;;4.40;;
38853;SDS011;24606;51.992;4.198;2022-12-17T08:51:33;5.50;;;3.20;;
38853;SDS011;24606;51.992;4.198;2022-12-17T08:56:52;5.53;;;2.90;;
38853;SDS011;24606;51.992;4.198;2022-12-17T09:02:12;5.88;;;3.22;;
38853;SDS011;24606;51.992;4.198;2022-12-17T09:07:33;5.07;;;3.25;;
38853;SDS011;24606;51.992;4.198;2022-12-17T09:12:52;10.07;;;3.15;;
38853;SDS011;24606;51.992;4.198;2022-12-17T09:18:12;5.65;;;3.13;;
38853;SDS011;24606;51.992;4.198;2022-12-17T09:23:37;7.93;;;3.30;;
38853;SDS011;24606;51.992;4.198;2022-12-17T09:28:56;5.57;;;3.38;;
38853;SDS011;24606;51.992;4.198;2022-12-17T09:34:16;6.93;;;3.53;;
38853;SDS011;24606;51.992;4.198;2022-12-17T09:39:36;5.75;;;3.38;;
38853;SDS011;24606;51.992;4.198;2022-12-17T09:44:57;6.50;;;4.25;;
38853;SDS011;24606;51.992;4.198;2022-12-17T09:50:21;5.28;;;3.40;;
38853;SDS011;24606;51.992;4.198;2022-12-17T09:55:42;7.53;;;4.00;;
38853;SDS011;24606;51.992;4.198;2022-12-17T10:01:05;10.40;;;4.22;;
38853;SDS011;24606;51.992;4.198;2022-12-17T10:06:33;12.00;;;6.80;;
38853;SDS011;24606;51.992;4.198;2022-12-17T10:11:54;5.78;;;3.92;;
38853;SDS011;24606;51.992;4.198;2022-12-17T10:17:21;4.88;;;3.72;;
38853;SDS011;24606;51.992;4.198;2022-12-17T10:22:42;5.38;;;3.55;;
38853;SDS011;24606;51.992;4.198;2022-12-17T10:28:05;8.37;;;4.43;;
38853;SDS011;24606;51.992;4.198;2022-12-17T10:33:28;4.75;;;3.63;;
38853;SDS011;24606;51.992;4.198;2022-12-17T10:38:55;7.55;;;4.20;;
38853;SDS011;24606;51.992;4.198;2022-12-17T10:44:20;7.25;;;3.70;;
38853;SDS011;24606;51.992;4.198;2022-12-17T10:49:41;4.95;;;3.15;;
38853;SDS011;24606;51.992;4.198;2022-12-17T10:55:02;7.05;;;3.13;;
38853;SDS011;24606;51.992;4.198;2022-12-17T11:00:25;5.00;;;3.50;;
38853;SDS011;24606;51.992;4.198;2022-12-17T11:05:46;6.35;;;3.60;;
38853;SDS011;24606;51.992;4.198;2022-12-17T11:11:10;6.72;;;3.20;;
38853;SDS011;24606;51.992;4.198;2022-12-17T11:16:32;6.55;;;3.80;;
38853;SDS011;24606;51.992;4.198;2022-12-17T11:21:56;4.93;;;3.35;;
38853;SDS011;24606;51.992;4.198;2022-12-17T11:27:21;4.65;;;3.22;;
38853;SDS011;24606;51.992;4.198;2022-12-17T11:32:49;13.05;;;6.57;;
38853;SDS011;24606;51.992;4.198;2022-12-17T11:38:21;6.30;;;4.00;;
38853;SDS011;24606;51.992;4.198;2022-12-17T11:43:49;8.70;;;3.63;;
38853;SDS011;24606;51.992;4.198;2022-12-17T11:49:17;7.07;;;4.00;;
38853;SDS011;24606;51.992;4.198;2022-12-17T11:54:45;4.85;;;3.45;;
38853;SDS011;24606;51.992;4.198;2022-12-17T12:00:12;20.83;;;11.15;;
38853;SDS011;24606;51.992;4.198;2022-12-17T12:05:39;5.70;;;4.00;;
38853;SDS011;24606;51.992;4.198;2022-12-17T12:11:05;11.90;;;5.32;;
38853;SDS011;24606;51.992;4.198;2022-12-17T12:16:38;5.13;;;3.03;;
38853;SDS011;24606;51.992;4.198;2022-12-17T12:22:07;5.78;;;3.20;;
38853;SDS011;24606;51.992;4.198;2022-12-17T12:27:35;5.78;;;3.60;;
38853;SDS011;24606;51.992;4.198;2022-12-17T12:32:59;10.02;;;5.97;;
38853;SDS011;24606;51.992;4.198;2022-12-17T12:38:29;4.97;;;3.13;;
38853;SDS011;24606;51.992;4.198;2022-12-17T12:43:53;5.28;;;3.70;;
38853;SDS011;24606;51.992;4.198;2022-12-17T12:49:19;11.73;;;6.63;;
38853;SDS011;24606;51.992;4.198;2022-12-17T12:54:51;11.93;;;6.80;;
38853;SDS011;24606;51.992;4.198;2022-12-17T13:00:22;12.85;;;7.72;;
38853;SDS011;24606;51.992;4.198;2022-12-17T13:05:43;11.52;;;7.03;;
38853;SDS011;24606;51.992;4.198;2022-12-17T13:10:45;12.27;;;6.90;;
38853;SDS011;24606;51.992;4.198;2022-12-17T13:15:48;11.80;;;6.75;;
38853;SDS011;24606;51.992;4.198;2022-12-17T13:20:55;8.63;;;5.80;;
38853;SDS011;24606;51.992;4.198;2022-12-17T13:26:09;6.03;;;4.20;;
38853;SDS011;24606;51.992;4.198;2022-12-17T13:31:17;8.55;;;3.92;;
38853;SDS011;24606;51.992;4.198;2022-12-17T13:36:22;5.60;;;3.40;;
38853;SDS011;24606;51.992;4.198;2022-12-17T13:41:31;12.45;;;4.47;;
38853;SDS011;24606;51.992;4.198;2022-12-17T13:46:40;5.35;;;3.50;;
38853;SDS011;24606;51.992;4.198;2022-12-17T13:51:44;7.50;;;3.25;;
38853;SDS011;24606;51.992;4.198;2022-12-17T13:56:47;4.97;;;3.20;;
38853;SDS011;24606;51.992;4.198;2022-12-17T14:01:50;5.03;;;2.70;;
38853;SDS011;24606;51.992;4.198;2022-12-17T14:06:53;5.05;;;2.90;;
38853;SDS011;24606;51.992;4.198;2022-12-17T14:11:59;5.97;;;3.15;;
38853;SDS011;24606;51.992;4.198;2022-12-17T14:17:23;4.10;;;2.67;;
38853;SDS011;24606;51.992;4.198;2022-12-17T14:22:29;5.90;;;3.25;;
38853;SDS011;24606;51.992;4.198;2022-12-17T14:27:36;7.25;;;3.10;;
38853;SDS011;24606;51.992;4.198;2022-12-17T14:32:38;3.78;;;2.85;;
38853;SDS011;24606;51.992;4.198;2022-12-17T14:37:44;6.30;;;2.80;;
38853;SDS011;24606;51.992;4.198;2022-12-17T14:42:49;6.40;;;2.67;;
38853;SDS011;24606;51.992;4.198;2022-12-17T14:47:52;5.22;;;2.53;;
38853;SDS011;24606;51.992;4.198;2022-12-17T14:52:55;6.72;;;2.45;;
38853;SDS011;24606;51.992;4.198;2022-12-17T14:58:08;6.63;;;3.38;;
38853;SDS011;24606;51.992;4.198;2022-12-17T15:03:17;3.72;;;2.80;;
38853;SDS011;24606;51.992;4.198;2022-12-17T15:08:24;5.35;;;2.63;;
38853;SDS011;24606;51.992;4.198;2022-12-17T15:13:29;5.00;;;2.78;;
38853;SDS011;24606;51.992;4.198;2022-12-17T15:18:32;6.25;;;2.50;;
38853;SDS011;24606;51.992;4.198;2022-12-17T15:23:36;5.05;;;2.50;;
38853;SDS011;24606;51.992;4.198;2022-12-17T15:28:43;5.28;;;2.88;;
38853;SDS011;24606;51.992;4.198;2022-12-17T15:33:45;7.13;;;2.70;;
38853;SDS011;24606;51.992;4.198;2022-12-17T15:38:47;5.00;;;2.77;;
38853;SDS011;24606;51.992;4.198;2022-12-17T15:43:51;5.53;;;2.83;;
38853;SDS011;24606;51.992;4.198;2022-12-17T15:48:53;8.43;;;3.25;;
38853;SDS011;24606;51.992;4.198;2022-12-17T15:53:56;4.68;;;2.90;;
38853;SDS011;24606;51.992;4.198;2022-12-17T15:58:59;8.20;;;5.00;;
38853;SDS011;24606;51.992;4.198;2022-12-17T16:04:01;10.25;;;5.60;;
38853;SDS011;24606;51.992;4.198;2022-12-17T16:09:03;8.57;;;4.28;;
38853;SDS011;24606;51.992;4.198;2022-12-17T16:14:07;7.60;;;4.03;;
38853;SDS011;24606;51.992;4.198;2022-12-17T16:19:09;7.15;;;3.60;;
38853;SDS011;24606;51.992;4.198;2022-12-17T16:24:11;4.30;;;3.05;;
38853;SDS011;24606;51.992;4.198;2022-12-17T16:29:14;5.77;;;4.07;;
38853;SDS011;24606;51.992;4.198;2022-12-17T16:34:17;4.93;;;3.13;;
38853;SDS011;24606;51.992;4.198;2022-12-17T16:39:19;8.48;;;4.40;;
38853;SDS011;24606;51.992;4.198;2022-12-17T16:44:23;6.25;;;3.40;;
38853;SDS011;24606;51.992;4.198;2022-12-17T16:49:25;6.40;;;3.85;;
38853;SDS011;24606;51.992;4.198;2022-12-17T16:54:28;7.35;;;4.20;;
38853;SDS011;24606;51.992;4.198;2022-12-17T16:59:33;6.07;;;4.22;;
38853;SDS011;24606;51.992;4.198;2022-12-17T17:04:35;6.82;;;3.92;;
38853;SDS011;24606;51.992;4.198;2022-12-17T17:09:37;18.83;;;9.80;;
38853;SDS011;24606;51.992;4.198;2022-12-17T17:14:40;17.27;;;9.07;;
38853;SDS011;24606;51.992;4.198;2022-12-17T17:19:43;10.23;;;5.55;;
38853;SDS011;24606;51.992;4.198;2022-12-17T17:24:45;12.70;;;6.00;;
38853;SDS011;24606;51.992;4.198;2022-12-17T17:29:48;13.77;;;7.30;;
38853;SDS011;24606;51.992;4.198;2022-12-17T17:34:50;12.70;;;5.93;;
38853;SDS011;24606;51.992;4.198;2022-12-17T17:39:52;12.25;;;7.85;;
38853;SDS011;24606;51.992;4.198;2022-12-17T17:44:56;16.27;;;8.43;;
38853;SDS011;24606;51.992;4.198;2022-12-17T17:49:58;17.98;;;10.50;;
38853;SDS011;24606;51.992;4.198;2022-12-17T17:55:00;17.77;;;9.73;;
38853;SDS011;24606;51.992;4.198;2022-12-17T18:00:04;14.70;;;8.63;;
38853;SDS011;24606;51.992;4.198;2022-12-17T18:05:07;19.33;;;10.55;;
38853;SDS011;24606;51.992;4.198;2022-12-17T18:10:09;11.82;;;7.57;;
38853;SDS011;24606;51.992;4.198;2022-12-17T18:15:13;26.27;;;14.67;;
38853;SDS011;24606;51.992;4.198;2022-12-17T18:20:15;36.25;;;18.98;;
38853;SDS011;24606;51.992;4.198;2022-12-17T18:25:17;37.00;;;19.50;;
38853;SDS011;24606;51.992;4.198;2022-12-17T18:30:21;39.03;;;21.45;;
38853;SDS011;24606;51.992;4.198;2022-12-17T18:35:23;45.38;;;23.13;;
38853;SDS011;24606;51.992;4.198;2022-12-17T18:40:26;45.85;;;22.75;;
38853;SDS011;24606;51.992;4.198;2022-12-17T18:45:31;52.90;;;25.07;;
38853;SDS011;24606;51.992;4.198;2022-12-17T18:50:37;43.50;;;22.55;;
38853;SDS011;24606;51.992;4.198;2022-12-17T18:55:39;39.97;;;21.53;;
38853;SDS011;24606;51.992;4.198;2022-12-17T19:00:42;38.77;;;21.50;;
38853;SDS011;24606;51.992;4.198;2022-12-17T19:05:44;54.47;;;25.55;;
38853;SDS011;24606;51.992;4.198;2022-12-17T19:10:46;52.03;;;25.75;;
38853;SDS011;24606;51.992;4.198;2022-12-17T19:15:49;27.93;;;13.60;;
38853;SDS011;24606;51.992;4.198;2022-12-17T19:20:55;21.38;;;11.38;;
38853;SDS011;24606;51.992;4.198;2022-12-17T19:26:03;25.58;;;12.85;;
38853;SDS011;24606;51.992;4.198;2022-12-17T19:31:08;19.92;;;9.88;;
38853;SDS011;24606;51.992;4.198;2022-12-17T19:36:11;23.35;;;11.70;;
38853;SDS011;24606;51.992;4.198;2022-12-17T19:41:15;16.50;;;9.07;;
38853;SDS011;24606;51.992;4.198;2022-12-17T19:46:19;23.25;;;10.52;;
38853;SDS011;24606;51.992;4.198;2022-12-17T19:51:22;26.30;;;13.00;;
38853;SDS011;24606;51.992;4.198;2022-12-17T19:56:26;16.58;;;8.73;;
38853;SDS011;24606;51.992;4.198;2022-12-17T20:01:31;11.20;;;6.78;;
38853;SDS011;24606;51.992;4.198;2022-12-17T20:06:35;10.73;;;6.75;;
38853;SDS011;24606;51.992;4.198;2022-12-17T20:11:37;17.60;;;7.18;;
38853;SDS011;24606;51.992;4.198;2022-12-17T20:16:42;15.85;;;8.02;;
38853;SDS011;24606;51.992;4.198;2022-12-17T20:21:45;16.70;;;6.93;;
38853;SDS011;24606;51.992;4.198;2022-12-17T20:26:48;21.50;;;6.85;;
38853;SDS011;24606;51.992;4.198;2022-12-17T20:31:53;17.15;;;7.90;;
38853;SDS011;24606;51.992;4.198;2022-12-17T20:36:55;15.82;;;7.85;;
38853;SDS011;24606;51.992;4.198;2022-12-17T20:41:57;12.77;;;7.60;;
38853;SDS011;24606;51.992;4.198;2022-12-17T20:47:00;14.63;;;7.90;;
38853;SDS011;24606;51.992;4.198;2022-12-17T20:52:03;18.85;;;8.00;;
38853;SDS011;24606;51.992;4.198;2022-12-17T20:57:05;11.15;;;7.25;;
38853;SDS011;24606;51.992;4.198;2022-12-17T21:02:09;17.73;;;8.30;;
38853;SDS011;24606;51.992;4.198;2022-12-17T21:07:11;17.23;;;8.07;;
38853;SDS011;24606;51.992;4.198;2022-12-17T21:12:13;16.67;;;7.87;;
38853;SDS011;24606;51.992;4.198;2022-12-17T21:17:16;18.03;;;8.47;;
38853;SDS011;24606;51.992;4.198;2022-12-17T21:22:18;14.63;;;7.93;;
38853;SDS011;24606;51.992;4.198;2022-12-17T21:27:20;12.43;;;7.57;;
38853;SDS011;24606;51.992;4.198;2022-12-17T21:32:24;14.30;;;7.35;;
38853;SDS011;24606;51.992;4.198;2022-12-17T21:37:26;14.23;;;7.72;;
38853;SDS011;24606;51.992;4.198;2022-12-17T21:42:27;14.57;;;8.23;;
38853;SDS011;24606;51.992;4.198;2022-12-17T21:47:48;12.48;;;7.78;;
38853;SDS011;24606;51.992;4.198;2022-12-17T21:52:50;18.92;;;9.23;;
38853;SDS011;24606;51.992;4.198;2022-12-17T21:57:52;15.98;;;6.93;;
38853;SDS011;24606;51.992;4.198;2022-12-17T22:02:55;12.57;;;7.00;;
38853;SDS011;24606;51.992;4.198;2022-12-17T22:07:57;17.20;;;7.70;;
38853;SDS011;24606;51.992;4.198;2022-12-17T22:12:59;16.53;;;7.93;;
38853;SDS011;24606;51.992;4.198;2022-12-17T22:18:20;13.38;;;7.70;;
38853;SDS011;24606;51.992;4.198;2022-12-17T22:23:22;15.32;;;7.63;;
38853;SDS011;24606;51.992;4.198;2022-12-17T22:28:24;16.57;;;9.63;;
38853;SDS011;24606;51.992;4.198;2022-12-17T22:33:27;18.30;;;9.20;;
38853;SDS011;24606;51.992;4.198;2022-12-17T22:38:29;23.90;;;11.82;;
38853;SDS011;24606;51.992;4.198;2022-12-17T22:43:31;19.97;;;11.23;;
38853;SDS011;24606;51.992;4.198;2022-12-17T22:48:35;18.70;;;10.27;;
38853;SDS011;24606;51.992;4.198;2022-12-17T22:53:37;14.00;;;8.30;;
38853;SDS011;24606;51.992;4.198;2022-12-17T22:58:39;15.07;;;9.03;;
38853;SDS011;24606;51.992;4.198;2022-12-17T23:03:42;15.67;;;9.43;;
38853;SDS011;24606;51.992;4.198;2022-12-17T23:08:44;19.05;;;10.27;;
38853;SDS011;24606;51.992;4.198;2022-12-17T23:13:46;25.50;;;12.73;;
38853;SDS011;24606;51.992;4.198;2022-12-17T23:18:50;21.73;;;11.33;;
38853;SDS011;24606;51.992;4.198;2022-12-17T23:23:53;21.83;;;10.27;;
38853;SDS011;24606;51.992;4.198;2022-12-17T23:28:56;19.92;;;10.10;;
38853;SDS011;24606;51.992;4.198;2022-12-17T23:34:02;18.63;;;10.27;;
38853;SDS011;24606;51.992;4.198;2022-12-17T23:39:04;19.55;;;10.93;;
38853;SDS011;24606;51.992;4.198;2022-12-17T23:44:06;16.45;;;10.38;;
38853;SDS011;24606;51.992;4.198;2022-12-17T23:49:10;21.47;;;10.87;;
38853;SDS011;24606;51.992;4.198;2022-12-17T23:54:14;27.35;;;12.88;;
38853;SDS011;24606;51.992;4.198;2022-12-17T23:59:16;24.30;;;13.60;;
